Hollyglen, California
Current Conditions -  °F | °C
As of 12:53 PM on Thursday 23 Oct 2014 (Local Time) from KHHR Reporting Station
Clear Clear  
Wind Chill: 82°   Ceiling: Unl
Heat Index: 82°   Visibility: 10mi
Dew Point: 56°   Wind: 7mph
Humidity: 41%   Direction: NA
Pressure: 29.96"   Gusts: NA
Location:  33.9143°N, 118.349°W
Report Text: KHHR 231953Z VRB06KT 10SM CLR 28/13 A2996 RMK AO2 SLP146 T02780133
Loading
Personal Weather Stations






























Interactive Weather Map
Tropical Storm Tracking
New forecast layout! Learn more

10-Day Weather Forecast

Advertisements
Track Severe Weather on mobile